Time;durP1;ratioP1;P1;durP2;ratioP2;P2;SDS_P1;SDS_P2;PMS_P1;PMS_P2;Temp;Humidity;BMP_temperature;BMP_pressure;BME280_temperature;BME280_humidity;BME280_pressure;Samples;Min_cycle;Max_cycle;Signal;HPM_P1;HPM_P2
2023/05/17 00:00:17;;;;;;;4.00;1.60;;;;;;;8.84;89.47;99120.06;4091966;28;20198;-45
2023/05/17 00:02:22;;;;;;;3.50;2.38;;;;;;;8.98;89.37;99127.91;4092169;28;20203;-45
2023/05/17 00:04:26;;;;;;;4.15;1.80;;;;;;;8.91;89.45;99126.28;4094362;28;20672;-44
2023/05/17 00:06:31;;;;;;;4.38;1.70;;;;;;;8.78;89.56;99132.72;4103869;28;20211;-46
2023/05/17 00:08:35;;;;;;;2.80;1.83;;;;;;;8.80;89.90;99129.75;4091937;28;20211;-45
2023/05/17 00:10:39;;;;;;;4.32;1.75;;;;;;;8.80;90.20;99136.03;4092599;28;20228;-45
2023/05/17 00:12:46;;;;;;;3.17;1.52;;;;;;;8.81;90.39;99137.72;4090961;28;20242;-45
2023/05/17 00:14:50;;;;;;;2.15;1.60;;;;;;;8.74;90.71;99136.13;4090706;28;20215;-46
2023/05/17 00:17:02;;;;;;;1.77;1.45;;;;;;;8.73;90.09;99131.69;4093952;28;20270;-44
2023/05/17 00:19:10;;;;;;;4.72;1.83;;;;;;;8.78;91.30;99127.25;4090588;28;20212;-45
2023/05/17 00:21:14;;;;;;;2.72;1.40;;;;;;;8.81;91.22;99134.16;4077608;29;20664;-46
2023/05/17 00:23:18;;;;;;;3.35;1.73;;;;;;;8.74;91.32;99125.22;4091639;28;20233;-46
2023/05/17 00:25:23;;;;;;;2.53;1.92;;;;;;;8.72;91.85;99135.47;4077051;29;20385;-45
2023/05/17 00:27:27;;;;;;;5.97;2.13;;;;;;;8.78;92.09;99137.31;4075622;29;20212;-45
2023/05/17 00:29:31;;;;;;;5.95;4.30;;;;;;;8.74;92.06;99136.13;4092762;28;20239;-45
2023/05/17 00:31:35;;;;;;;7.20;5.85;;;;;;;8.72;92.20;99139.06;4090983;28;20816;-46
2023/05/17 00:33:41;;;;;;;5.80;5.10;;;;;;;8.72;92.25;99138.22;4093347;28;20207;-46
2023/05/17 00:35:45;;;;;;;6.18;4.20;;;;;;;8.77;92.10;99141.13;4093848;28;20211;-45
2023/05/17 00:37:52;;;;;;;4.90;3.05;;;;;;;8.83;91.81;99142.97;4090722;28;20680;-45
2023/05/17 00:39:57;;;;;;;3.17;2.25;;;;;;;8.79;91.31;99139.00;4090197;28;20299;-46
2023/05/17 00:42:01;;;;;;;4.25;2.53;;;;;;;8.75;91.60;99137.78;4088786;28;20234;-46
2023/05/17 00:44:07;;;;;;;13.50;2.13;;;;;;;8.75;91.07;99143.25;4094405;28;20223;-46
2023/05/17 00:46:11;;;;;;;4.53;2.05;;;;;;;8.72;91.27;99146.41;4093316;28;20204;-45
2023/05/17 00:48:16;;;;;;;5.18;2.00;;;;;;;8.73;91.49;99145.34;4091036;28;20669;-46
2023/05/17 00:50:19;;;;;;;2.20;2.00;;;;;;;8.72;91.28;99143.66;4091181;28;20270;-46
2023/05/17 00:52:21;;;;;;;2.63;2.10;;;;;;;8.76;91.79;99140.25;4090994;28;20771;-46
2023/05/17 00:54:22;;;;;;;3.30;2.53;;;;;;;8.76;91.99;99145.72;4092740;28;20211;-46
2023/05/17 00:56:24;;;;;;;2.75;2.38;;;;;;;8.77;92.00;99146.56;4092782;28;20219;-46
2023/05/17 00:58:27;;;;;;;7.90;2.30;;;;;;;8.77;92.07;99149.31;4096857;28;20783;-46
2023/05/17 01:00:32;;;;;;;4.30;2.33;;;;;;;8.75;92.04;99151.44;4098217;28;20222;-45
2023/05/17 01:02:37;;;;;;;5.82;2.25;;;;;;;8.77;92.08;99146.56;4098754;28;20489;-46
2023/05/17 01:04:41;;;;;;;4.47;2.38;;;;;;;8.76;92.16;99150.38;4094030;28;20228;-45
2023/05/17 01:06:46;;;;;;;4.70;2.92;;;;;;;8.76;92.15;99144.91;4094298;28;20327;-45
2023/05/17 01:08:50;;;;;;;3.78;3.05;;;;;;;8.75;92.32;99148.69;4098247;28;20210;-45
2023/05/17 01:11:31;;;;;;;3.35;2.55;;;;;;;8.77;92.77;99154.75;4099180;28;20254;-46
2023/05/17 01:13:53;;;;;;;3.80;3.10;;;;;;;8.82;93.11;99149.47;4095270;28;20211;-45
2023/05/17 01:16:21;;;;;;;3.13;2.83;;;;;;;8.75;92.86;99148.69;4108619;28;20210;-45
2023/05/17 01:18:29;;;;;;;4.30;3.63;;;;;;;8.76;93.32;99155.81;4093425;28;20307;-45
2023/05/17 01:20:36;;;;;;;7.10;2.97;;;;;;;8.73;93.45;99156.25;4095198;28;20210;-45
2023/05/17 01:23:03;;;;;;;5.63;2.92;;;;;;;8.74;93.31;99157.94;4093147;28;20208;-46
2023/05/17 01:25:11;;;;;;;3.40;2.72;;;;;;;8.75;93.88;99156.88;4090929;28;20207;-45
2023/05/17 01:27:14;;;;;;;4.97;3.00;;;;;;;8.70;93.45;99156.72;4095782;28;20236;-45
2023/05/17 01:29:17;;;;;;;2.72;2.05;;;;;;;8.68;94.04;99153.38;4093831;28;20255;-45
2023/05/17 01:31:19;;;;;;;2.35;2.05;;;;;;;8.66;94.44;99155.47;4094770;28;20327;-46
2023/05/17 01:33:22;;;;;;;7.93;1.88;;;;;;;8.64;94.32;99149.41;4095816;28;20733;-45
2023/05/17 01:35:24;;;;;;;4.15;2.05;;;;;;;8.61;93.98;99158.06;4094310;28;20674;-46
2023/05/17 01:37:26;;;;;;;2.80;2.50;;;;;;;8.58;94.20;99148.41;4095106;28;20207;-47
2023/05/17 01:39:28;;;;;;;5.00;2.17;;;;;;;8.52;94.58;99148.44;4089953;28;20215;-45
2023/05/17 01:41:34;;;;;;;2.97;1.75;;;;;;;8.49;93.97;99146.19;4080538;29;20963;-45
2023/05/17 01:43:42;;;;;;;6.18;2.60;;;;;;;8.46;94.48;99152.06;4103203;28;20233;-45
2023/05/17 01:46:08;;;;;;;4.07;2.20;;;;;;;8.41;94.25;99157.38;4092105;28;20204;-46
2023/05/17 01:48:19;;;;;;;2.75;1.90;;;;;;;8.39;94.70;99159.44;4085214;28;20219;-46
2023/05/17 01:50:24;;;;;;;2.65;1.80;;;;;;;8.35;94.73;99163.69;4092561;28;20210;-46
2023/05/17 01:52:50;;;;;;;2.20;1.98;;;;;;;8.32;94.72;99159.50;4093933;28;20333;-45
2023/05/17 01:55:09;;;;;;;4.00;2.72;;;;;;;8.26;95.35;99159.53;4101175;28;20203;-45
2023/05/17 01:57:13;;;;;;;2.92;2.20;;;;;;;8.22;95.10;99163.78;4098602;28;20260;-47
2023/05/17 01:59:20;;;;;;;4.53;2.00;;;;;;;8.21;95.06;99162.13;4086733;29;20294;-46
2023/05/17 02:01:22;;;;;;;2.83;2.03;;;;;;;8.24;95.36;99167.13;4081814;29;20236;-45
2023/05/17 02:03:26;;;;;;;3.22;2.13;;;;;;;8.11;95.61;99157.09;4093366;28;20212;-45
2023/05/17 02:05:28;;;;;;;2.53;2.15;;;;;;;8.07;95.51;99166.75;4097042;28;20223;-46
2023/05/17 02:07:30;;;;;;;5.72;2.72;;;;;;;8.04;96.00;99166.38;4077709;29;20255;-46
2023/05/17 02:09:32;;;;;;;6.55;3.17;;;;;;;8.06;95.91;99166.97;4079463;29;20230;-46
2023/05/17 02:11:35;;;;;;;3.75;2.20;;;;;;;8.03;95.88;99161.97;4095046;28;20231;-46
2023/05/17 02:13:36;;;;;;;2.80;2.15;;;;;;;7.98;96.23;99168.09;4094018;28;20272;-45
2023/05/17 02:15:38;;;;;;;2.25;2.03;;;;;;;7.94;95.91;99171.44;4097108;28;20211;-45
2023/05/17 02:17:40;;;;;;;4.10;2.42;;;;;;;8.01;96.43;99166.81;4094034;28;20218;-46
2023/05/17 02:19:43;;;;;;;3.28;2.30;;;;;;;7.94;96.50;99171.44;4093342;28;20310;-46
2023/05/17 02:21:44;;;;;;;3.05;2.63;;;;;;;7.86;96.12;99163.50;4096731;28;20234;-46
2023/05/17 02:23:46;;;;;;;2.20;1.95;;;;;;;7.86;96.41;99168.97;4095627;28;20276;-46
2023/05/17 02:25:48;;;;;;;2.45;1.90;;;;;;;7.94;96.94;99163.25;4092531;28;20685;-46
2023/05/17 02:27:50;;;;;;;2.97;2.45;;;;;;;7.84;96.38;99171.94;4077779;28;20212;-46
2023/05/17 02:29:51;;;;;;;3.28;2.28;;;;;;;7.81;96.11;99168.78;4092225;28;20223;-46
2023/05/17 02:31:53;;;;;;;4.55;2.33;;;;;;;7.82;96.57;99167.75;4091043;28;20226;-45
2023/05/17 02:33:55;;;;;;;3.03;2.60;;;;;;;7.74;96.82;99171.53;4088809;28;20212;-46
2023/05/17 02:35:57;;;;;;;2.67;2.47;;;;;;;7.80;96.93;99175.28;4093344;28;20714;-46
2023/05/17 02:38:00;;;;;;;3.10;2.38;;;;;;;7.70;96.40;99180.34;4092703;28;20218;-45
2023/05/17 02:40:07;;;;;;;2.33;2.13;;;;;;;7.67;96.61;99180.78;4082276;29;20236;-45
2023/05/17 02:42:09;;;;;;;3.80;2.20;;;;;;;7.70;96.95;99185.81;4077877;28;20227;-47
2023/05/17 02:44:11;;;;;;;3.60;2.50;;;;;;;7.71;96.72;99190.19;4089938;28;20714;-48
2023/05/17 02:46:12;;;;;;;2.65;2.45;;;;;;;7.62;96.75;99183.34;4090481;28;20650;-45
2023/05/17 02:48:14;;;;;;;2.42;1.88;;;;;;;7.69;96.92;99193.13;4092738;28;20238;-46
2023/05/17 02:50:16;;;;;;;3.33;3.13;;;;;;;7.63;97.63;99195.88;4079369;29;20299;-45
2023/05/17 02:52:21;;;;;;;5.00;2.67;;;;;;;7.58;97.29;99190.25;4095704;28;20685;-46
2023/05/17 02:54:23;;;;;;;3.97;2.45;;;;;;;7.63;97.32;99187.72;4078551;28;20294;-46
2023/05/17 02:56:24;;;;;;;2.92;1.83;;;;;;;7.57;97.83;99186.66;4093790;28;20266;-47
2023/05/17 02:58:26;;;;;;;3.17;2.38;;;;;;;7.59;97.65;99192.75;4099106;28;20208;-45
2023/05/17 03:00:28;;;;;;;3.13;1.90;;;;;;;7.61;97.26;99196.09;4096894;28;20218;-45
2023/05/17 03:02:30;;;;;;;4.13;3.03;;;;;;;7.61;97.61;99198.00;4101047;28;20686;-46
2023/05/17 03:04:32;;;;;;;2.70;2.03;;;;;;;7.57;97.88;99199.47;4095989;28;20231;-46
2023/05/17 03:06:34;;;;;;;7.90;2.35;;;;;;;7.55;97.79;99199.69;4099667;28;20229;-47
2023/05/17 03:08:36;;;;;;;5.20;2.35;;;;;;;7.61;98.26;99198.00;4100066;28;20710;-45
2023/05/17 03:10:38;;;;;;;4.70;2.63;;;;;;;7.52;98.24;99202.00;4080142;29;20594;-46
2023/05/17 03:12:39;;;;;;;2.67;2.35;;;;;;;7.40;97.83;99203.69;4077990;28;20216;-47
2023/05/17 03:14:41;;;;;;;2.78;2.58;;;;;;;7.37;98.56;99204.94;4088949;28;20239;-46
2023/05/17 03:16:43;;;;;;;4.65;3.03;;;;;;;7.39;98.08;99204.75;4093276;28;20216;-46
2023/05/17 03:18:45;;;;;;;2.88;2.58;;;;;;;7.42;98.68;99209.78;4091276;28;20558;-45
2023/05/17 03:20:47;;;;;;;3.83;2.33;;;;;;;7.36;98.23;99205.19;4092794;28;20227;-46
2023/05/17 03:22:49;;;;;;;4.28;2.28;;;;;;;7.31;98.77;99207.69;4095059;28;20207;-45
2023/05/17 03:24:51;;;;;;;2.83;2.63;;;;;;;7.38;98.28;99208.53;4091610;28;20231;-46
2023/05/17 03:26:53;;;;;;;3.30;2.47;;;;;;;7.29;98.34;99216.06;4094580;28;20279;-45
2023/05/17 03:28:54;;;;;;;4.65;1.95;;;;;;;7.25;98.71;99208.53;4095576;28;22046;-46
2023/05/17 03:30:56;;;;;;;3.05;2.35;;;;;;;7.19;98.55;99206.66;4093356;28;20328;-46
2023/05/17 03:32:58;;;;;;;3.72;1.98;;;;;;;7.16;98.93;99209.81;4093010;28;20211;-46
2023/05/17 03:35:00;;;;;;;8.45;2.47;;;;;;;7.17;98.71;99211.50;4094040;28;20230;-46
2023/05/17 03:37:02;;;;;;;3.28;2.97;;;;;;;7.22;98.53;99217.16;4088517;28;20699;-47
2023/05/17 03:39:03;;;;;;;4.20;2.80;;;;;;;7.14;99.17;99214.63;4091901;28;20215;-46
2023/05/17 03:41:05;;;;;;;2.70;1.95;;;;;;;7.26;98.32;99210.22;4090395;28;20235;-46
2023/05/17 03:43:07;;;;;;;2.85;1.65;;;;;;;7.07;98.76;99213.78;4087506;29;20606;-46
2023/05/17 03:45:09;;;;;;;3.63;1.80;;;;;;;6.97;98.70;99216.13;4091784;28;20617;-45
2023/05/17 03:47:11;;;;;;;2.63;2.22;;;;;;;6.89;99.12;99213.63;4087101;28;20259;-46
2023/05/17 03:49:13;;;;;;;2.40;1.92;;;;;;;6.80;98.86;99223.00;4089915;28;20223;-46
2023/05/17 03:51:15;;;;;;;2.55;2.15;;;;;;;6.91;98.67;99219.69;4089025;28;20309;-46
2023/05/17 03:53:17;;;;;;;4.63;2.45;;;;;;;6.77;99.57;99215.28;4088518;28;20211;-45
2023/05/17 03:55:19;;;;;;;2.28;1.90;;;;;;;6.81;99.35;99219.25;4088527;28;20230;-46
2023/05/17 03:57:21;;;;;;;3.30;2.08;;;;;;;6.87;99.40;99219.25;4091175;28;20212;-46
2023/05/17 03:59:23;;;;;;;3.10;2.80;;;;;;;6.83;99.57;99219.91;4091755;28;20243;-46
2023/05/17 04:01:25;;;;;;;4.82;2.55;;;;;;;6.84;99.37;99222.41;4093742;28;20231;-46
2023/05/17 04:03:30;;;;;;;8.13;2.55;;;;;;;6.80;99.21;99220.28;4091052;28;21020;-45
2023/05/17 04:05:32;;;;;;;2.55;1.92;;;;;;;6.74;100.00;99226.56;4092221;28;20227;-46
2023/05/17 04:07:34;;;;;;;2.30;2.08;;;;;;;6.67;99.92;99226.56;4094518;28;20247;-46
2023/05/17 04:09:36;;;;;;;2.83;2.53;;;;;;;6.74;99.69;99232.00;4093295;28;21124;-46
2023/05/17 04:11:39;;;;;;;3.80;2.38;;;;;;;6.71;100.00;99232.44;4090459;28;20243;-45
2023/05/17 04:13:41;;;;;;;2.00;1.90;;;;;;;6.69;100.00;99229.91;4093304;28;20259;-46
2023/05/17 04:15:43;;;;;;;4.25;1.98;;;;;;;6.68;100.00;99235.59;4090719;28;20634;-46
2023/05/17 04:17:45;;;;;;;3.00;1.98;;;;;;;6.69;99.75;99229.91;4073010;29;20219;-46
2023/05/17 04:19:47;;;;;;;5.28;2.65;;;;;;;6.75;100.00;99223.63;4088280;28;20725;-46
2023/05/17 04:21:50;;;;;;;2.95;2.47;;;;;;;6.86;99.80;99235.78;4074818;29;20228;-46
2023/05/17 04:24:15;;;;;;;4.43;2.00;;;;;;;6.80;100.00;99237.47;4093541;28;20255;-45
2023/05/17 04:26:41;;;;;;;4.25;2.63;;;;;;;6.92;99.96;99235.78;4107337;28;20233;-46
2023/05/17 04:29:00;;;;;;;4.65;2.38;;;;;;;6.90;100.00;99237.88;4091116;28;20214;-45
2023/05/17 04:31:35;;;;;;;3.70;2.00;;;;;;;6.96;100.00;99238.94;4091659;28;20229;-46
2023/05/17 04:33:51;;;;;;;6.57;3.88;;;;;;;6.99;100.00;99235.78;4091668;28;20561;-46
2023/05/17 04:36:03;;;;;;;6.50;4.97;;;;;;;6.97;100.00;99235.16;4090104;28;20227;-47
2023/05/17 04:38:05;;;;;;;7.78;6.65;;;;;;;7.01;100.00;99242.69;4090904;28;20210;-47
2023/05/17 04:40:07;;;;;;;8.00;6.43;;;;;;;7.02;100.00;99251.72;4091919;28;20210;-45
2023/05/17 04:42:09;;;;;;;6.05;5.45;;;;;;;7.07;100.00;99249.16;4077013;28;20232;-46
2023/05/17 04:44:11;;;;;;;7.65;6.95;;;;;;;7.16;100.00;99250.66;4087005;28;20230;-45
2023/05/17 04:46:12;;;;;;;11.48;10.38;;;;;;;6.98;100.00;99262.16;4089081;28;20930;-46
2023/05/17 04:48:15;;;;;;;12.23;11.18;;;;;;;6.98;100.00;99262.16;4087049;28;20208;-46
2023/05/17 04:50:17;;;;;;;11.88;9.48;;;;;;;7.00;100.00;99259.22;4103441;28;20214;-46
2023/05/17 04:52:19;;;;;;;6.22;5.65;;;;;;;7.03;100.00;99258.81;4091492;28;20233;-45
2023/05/17 04:54:21;;;;;;;8.27;6.03;;;;;;;7.08;100.00;99264.47;4088755;28;20223;-46
2023/05/17 04:56:23;;;;;;;10.05;4.55;;;;;;;7.01;100.00;99274.50;4088723;28;20571;-46
2023/05/17 04:58:25;;;;;;;4.40;3.97;;;;;;;7.13;100.00;99281.84;4071377;29;20667;-47
2023/05/17 05:00:27;;;;;;;5.82;5.32;;;;;;;7.17;100.00;99274.09;4093786;28;20215;-45
2023/05/17 05:02:29;;;;;;;5.75;4.80;;;;;;;7.23;100.00;99275.97;4085171;28;20216;-45
2023/05/17 05:04:31;;;;;;;4.93;4.03;;;;;;;7.23;100.00;99287.69;4075069;29;20588;-46
2023/05/17 05:06:33;;;;;;;4.07;3.65;;;;;;;7.34;100.00;99287.06;4089343;28;20211;-46
2023/05/17 05:08:36;;;;;;;6.15;3.78;;;;;;;7.34;100.00;99280.75;4093803;28;20209;-46
2023/05/17 05:10:38;;;;;;;3.97;3.00;;;;;;;7.24;100.00;99286.66;4077370;29;20215;-46
2023/05/17 05:12:40;;;;;;;5.05;2.97;;;;;;;7.33;100.00;99288.09;4092955;28;20223;-45
2023/05/17 05:14:41;;;;;;;3.30;2.50;;;;;;;7.39;100.00;99291.88;4072179;29;20946;-45
2023/05/17 05:16:43;;;;;;;2.88;2.25;;;;;;;7.49;100.00;99297.75;4088781;28;22054;-46
2023/05/17 05:18:45;;;;;;;8.63;2.60;;;;;;;7.58;100.00;99307.34;4073800;29;20280;-47
2023/05/17 05:20:48;;;;;;;3.08;2.55;;;;;;;7.62;100.00;99298.53;4087432;28;20321;-46
2023/05/17 05:22:50;;;;;;;5.03;2.83;;;;;;;7.58;100.00;99310.06;4092453;28;20589;-45
2023/05/17 05:24:52;;;;;;;3.28;2.67;;;;;;;7.70;100.00;99308.38;4089392;28;20207;-46
2023/05/17 05:26:54;;;;;;;3.13;2.47;;;;;;;7.50;100.00;99313.03;4090420;28;20216;-45
2023/05/17 05:28:55;;;;;;;6.43;2.53;;;;;;;7.68;100.00;99314.03;4090707;28;20207;-46
2023/05/17 05:30:59;;;;;;;3.50;2.97;;;;;;;7.88;100.00;99314.00;4087156;28;21012;-46
2023/05/17 05:33:00;;;;;;;9.43;3.10;;;;;;;8.03;100.00;99322.75;4100949;28;20208;-46
2023/05/17 05:35:04;;;;;;;3.10;2.38;;;;;;;8.24;100.00;99325.25;4087516;28;20282;-46
2023/05/17 05:37:06;;;;;;;2.75;2.40;;;;;;;8.47;100.00;99331.00;4086111;28;20686;-46
2023/05/17 05:39:08;;;;;;;3.35;2.75;;;;;;;8.61;100.00;99325.28;4082373;28;20682;-45
2023/05/17 05:41:10;;;;;;;3.33;3.03;;;;;;;8.62;100.00;99335.13;4087408;28;20231;-46
2023/05/17 05:43:12;;;;;;;4.88;2.30;;;;;;;8.85;100.00;99326.41;4079005;28;20614;-46
2023/05/17 05:45:14;;;;;;;3.58;2.30;;;;;;;8.95;98.58;99324.03;4088256;28;20207;-45
2023/05/17 05:47:16;;;;;;;4.47;2.65;;;;;;;9.24;99.27;99323.41;4090277;28;20207;-45
2023/05/17 05:49:18;;;;;;;5.07;2.17;;;;;;;9.25;98.97;99330.53;4095914;28;20208;-46
2023/05/17 05:51:20;;;;;;;3.10;2.30;;;;;;;9.58;98.46;99331.09;4073223;28;20655;-46
2023/05/17 05:53:23;;;;;;;7.28;2.47;;;;;;;9.73;97.37;99328.84;4094566;28;20749;-47
2023/05/17 05:55:25;;;;;;;4.45;2.70;;;;;;;9.99;95.64;99334.91;4090647;28;20227;-46
2023/05/17 05:57:27;;;;;;;6.63;2.72;;;;;;;10.20;94.71;99337.22;4077053;29;20212;-46
2023/05/17 05:59:29;;;;;;;4.63;2.70;;;;;;;10.26;94.59;99338.19;4091155;28;20207;-46
2023/05/17 06:01:31;;;;;;;5.32;2.47;;;;;;;10.40;93.90;99336.97;4089162;28;20733;-45
2023/05/17 06:03:32;;;;;;;4.35;2.08;;;;;;;10.43;93.72;99342.00;4080264;29;20207;-46
2023/05/17 06:05:34;;;;;;;4.70;3.10;;;;;;;10.68;94.22;99350.97;4092253;28;20215;-45
2023/05/17 06:07:36;;;;;;;3.75;2.13;;;;;;;10.54;91.74;99350.28;4091198;28;20215;-46
2023/05/17 06:09:38;;;;;;;5.00;2.50;;;;;;;10.81;91.86;99345.31;4089631;28;20282;-46
2023/05/17 06:11:40;;;;;;;4.05;2.42;;;;;;;10.92;91.01;99354.38;4089138;28;20652;-46
2023/05/17 06:13:42;;;;;;;4.75;2.60;;;;;;;11.09;90.56;99343.63;4091267;28;20725;-45
2023/05/17 06:15:44;;;;;;;4.47;3.65;;;;;;;11.15;89.79;99348.16;4093736;28;20238;-46
2023/05/17 06:17:46;;;;;;;3.92;2.83;;;;;;;11.29;89.71;99349.63;4094273;28;20536;-46
2023/05/17 06:19:51;;;;;;;7.22;2.65;;;;;;;11.35;88.26;99360.50;4092923;28;20241;-46
2023/05/17 06:22:02;;;;;;;9.35;2.17;;;;;;;11.52;90.34;99366.97;4088847;28;20261;-46
2023/05/17 06:24:04;;;;;;;5.25;2.83;;;;;;;11.69;88.60;99368.00;4091772;28;20590;-45
2023/05/17 06:26:09;;;;;;;15.07;2.75;;;;;;;11.94;88.08;99371.38;4076160;29;20212;-46
2023/05/17 06:28:14;;;;;;;4.80;2.85;;;;;;;11.58;88.60;99360.59;4100577;28;20752;-45
2023/05/17 06:30:16;;;;;;;8.23;2.88;;;;;;;11.86;87.13;99363.50;4096713;28;20302;-45
2023/05/17 06:32:18;;;;;;;5.32;2.50;;;;;;;12.02;87.58;99368.25;4094784;28;20266;-48
2023/05/17 06:34:20;;;;;;;2.92;2.22;;;;;;;11.99;85.57;99368.75;4093624;28;20246;-45
2023/05/17 06:36:23;;;;;;;6.22;3.10;;;;;;;11.88;87.00;99364.09;4096707;28;20230;-45
2023/05/17 06:38:26;;;;;;;6.22;2.72;;;;;;;12.22;84.79;99368.72;4098736;28;20265;-46
2023/05/17 06:40:29;;;;;;;3.45;2.60;;;;;;;11.72;84.38;99374.91;4094717;28;20222;-46
2023/05/17 06:42:34;;;;;;;5.80;2.80;;;;;;;11.57;84.35;99380.81;4088835;29;20278;-45
2023/05/17 06:44:36;;;;;;;3.78;3.17;;;;;;;11.44;86.11;99378.28;4102214;28;20223;-45
2023/05/17 06:46:44;;;;;;;9.10;3.28;;;;;;;11.19;86.62;99388.59;4110105;28;20210;-47
2023/05/17 06:49:01;;;;;;;6.38;3.28;;;;;;;11.39;87.00;99383.66;4094805;28;20734;-46
2023/05/17 06:51:06;;;;;;;5.47;3.47;;;;;;;11.21;86.75;99380.97;4088074;28;20317;-45
2023/05/17 06:53:20;;;;;;;6.30;4.25;;;;;;;11.40;86.66;99382.56;4093538;28;20207;-45
2023/05/17 06:55:22;;;;;;;5.60;3.88;;;;;;;11.33;86.08;99379.09;4111527;28;20317;-46
2023/05/17 06:57:25;;;;;;;6.63;3.10;;;;;;;11.46;86.34;99378.91;4101650;28;20582;-45
2023/05/17 06:59:28;;;;;;;5.97;3.38;;;;;;;11.40;87.28;99382.56;4095847;28;20706;-48
2023/05/17 07:01:31;;;;;;;5.05;3.45;;;;;;;11.56;85.91;99378.31;4092968;28;20282;-46
2023/05/17 07:03:34;;;;;;;8.38;3.13;;;;;;;11.31;85.75;99381.22;4103398;28;20295;-46
2023/05/17 07:05:36;;;;;;;4.97;2.65;;;;;;;11.39;85.50;99382.81;4101130;28;20290;-47
2023/05/17 07:07:38;;;;;;;8.95;3.55;;;;;;;11.35;86.17;99382.44;4096896;28;20298;-46
2023/05/17 07:09:40;;;;;;;4.10;3.20;;;;;;;11.42;85.11;99387.81;4087527;28;20212;-46
2023/05/17 07:11:42;;;;;;;8.95;3.63;;;;;;;11.33;86.33;99390.06;4097611;28;20250;-45
2023/05/17 07:13:44;;;;;;;3.90;2.80;;;;;;;11.19;86.98;99387.75;4092256;28;20645;-46
2023/05/17 07:15:47;;;;;;;8.50;3.38;;;;;;;11.43;87.08;99390.31;4091515;28;20262;-46
2023/05/17 07:17:49;;;;;;;5.95;3.17;;;;;;;11.08;85.13;99385.78;4091675;28;20221;-46
2023/05/17 07:19:51;;;;;;;4.72;3.67;;;;;;;11.48;86.94;99389.59;4095745;28;20212;-45
2023/05/17 07:21:52;;;;;;;5.90;3.35;;;;;;;12.08;86.06;99389.25;4088180;28;20231;-47
2023/05/17 07:23:54;;;;;;;5.65;3.60;;;;;;;12.47;82.73;99388.53;4078129;29;20220;-46
2023/05/17 07:25:56;;;;;;;5.57;3.08;;;;;;;12.83;81.96;99393.69;4090365;28;20208;-47
2023/05/17 07:27:58;;;;;;;9.50;3.45;;;;;;;12.74;80.76;99395.16;4095870;28;20222;-45
2023/05/17 07:30:02;;;;;;;4.65;3.58;;;;;;;12.88;80.37;99401.19;4097112;28;20210;-48
2023/05/17 07:32:04;;;;;;;4.13;3.17;;;;;;;12.86;79.26;99397.88;4097318;28;20235;-45
2023/05/17 07:34:06;;;;;;;4.60;3.42;;;;;;;12.97;79.97;99394.28;4099027;28;20217;-45
2023/05/17 07:36:08;;;;;;;4.88;3.70;;;;;;;12.76;80.70;99398.50;4094108;28;20219;-46
2023/05/17 07:38:10;;;;;;;10.35;3.80;;;;;;;12.68;79.83;99396.13;4098353;28;20204;-46
2023/05/17 07:40:12;;;;;;;4.00;2.97;;;;;;;12.80;78.55;99388.69;4077549;29;20216;-47
2023/05/17 07:42:14;;;;;;;4.15;2.67;;;;;;;12.31;77.32;99386.50;4094762;28;20227;-45
2023/05/17 07:44:15;;;;;;;14.13;3.67;;;;;;;12.12;77.45;99387.69;4090783;28;20231;-48
2023/05/17 07:46:17;;;;;;;5.03;2.72;;;;;;;11.96;80.26;99395.81;4104330;28;20203;-47
2023/05/17 07:48:19;;;;;;;5.25;3.15;;;;;;;12.00;81.38;99403.34;4097647;28;20258;-46
2023/05/17 07:50:22;;;;;;;6.85;3.97;;;;;;;11.90;81.24;99391.28;4095981;28;20215;-45
2023/05/17 07:52:24;;;;;;;9.52;5.47;;;;;;;11.53;83.13;99396.09;4096915;28;20209;-47
2023/05/17 07:54:26;;;;;;;6.78;3.00;;;;;;;11.55;83.28;99399.41;4096032;28;20935;-48
2023/05/17 07:56:28;;;;;;;5.30;3.35;;;;;;;11.75;83.02;99394.47;4093373;28;20277;-46
2023/05/17 07:58:30;;;;;;;4.93;2.80;;;;;;;11.61;83.54;99398.50;4077049;29;20315;-48
2023/05/17 08:00:32;;;;;;;8.07;3.45;;;;;;;11.69;83.96;99398.16;4074419;29;20216;-47
2023/05/17 08:02:34;;;;;;;5.03;3.75;;;;;;;11.76;84.77;99398.06;4077685;29;20212;-50
2023/05/17 08:04:40;;;;;;;5.78;3.70;;;;;;;11.89;82.74;99401.41;4091241;28;20673;-47
2023/05/17 08:06:47;;;;;;;5.63;3.33;;;;;;;11.83;81.36;99399.63;4073538;29;20204;-46
2023/05/17 08:08:49;;;;;;;7.70;4.22;;;;;;;11.85;80.98;99400.19;4092729;28;20755;-46
2023/05/17 08:10:51;;;;;;;5.80;3.58;;;;;;;11.77;81.06;99403.28;4093545;28;20229;-46
2023/05/17 08:12:53;;;;;;;7.65;3.85;;;;;;;11.66;81.06;99404.13;4093837;28;20215;-46
2023/05/17 08:14:55;;;;;;;4.05;3.00;;;;;;;11.65;78.83;99404.34;4086542;28;20266;-46
2023/05/17 08:16:59;;;;;;;5.38;3.33;;;;;;;11.76;79.68;99412.59;4090666;28;20227;-46
2023/05/17 08:19:02;;;;;;;3.88;3.03;;;;;;;12.00;80.44;99399.75;4102681;28;20373;-46
2023/05/17 08:21:04;;;;;;;5.60;3.30;;;;;;;12.17;77.85;99409.78;4087874;28;20638;-46
2023/05/17 08:23:06;;;;;;;3.67;3.10;;;;;;;12.19;77.71;99404.91;4078208;29;20216;-46
2023/05/17 08:25:10;;;;;;;8.13;3.10;;;;;;;12.43;78.04;99402.97;4092124;28;20658;-45
2023/05/17 08:27:12;;;;;;;7.30;2.97;;;;;;;12.52;75.99;99402.38;4090788;28;20262;-46
2023/05/17 08:29:15;;;;;;;5.70;3.25;;;;;;;12.19;75.19;99399.41;4074348;29;20227;-46
2023/05/17 08:31:17;;;;;;;3.50;2.38;;;;;;;12.17;76.19;99393.31;4076221;29;20319;-45
2023/05/17 08:33:24;;;;;;;6.43;2.58;;;;;;;12.56;77.44;99395.31;4062430;29;20216;-45
2023/05/17 08:35:28;;;;;;;4.10;2.88;;;;;;;12.62;78.73;99397.09;4103252;28;20211;-45
2023/05/17 08:37:30;;;;;;;4.65;2.78;;;;;;;12.64;76.43;99394.94;4105686;28;20740;-46
2023/05/17 08:39:36;;;;;;;4.05;3.70;;;;;;;12.82;76.64;99394.78;4078584;29;20207;-45
2023/05/17 08:41:39;;;;;;;4.40;3.10;;;;;;;12.90;77.05;99396.31;4090814;28;20230;-46
2023/05/17 08:43:42;;;;;;;4.68;2.70;;;;;;;12.63;74.15;99390.50;4094828;28;20267;-47
2023/05/17 08:45:45;;;;;;;5.35;2.63;;;;;;;12.02;74.26;99384.72;4077731;29;20678;-45
2023/05/17 08:47:49;;;;;;;4.85;2.72;;;;;;;12.86;73.62;99390.47;4096578;28;20699;-45
2023/05/17 08:49:56;;;;;;;3.70;2.10;;;;;;;13.87;67.95;99380.31;4088788;28;20231;-45
2023/05/17 08:52:00;;;;;;;5.70;2.10;;;;;;;14.21;65.75;99382.00;4080875;29;20730;-45
2023/05/17 08:54:04;;;;;;;4.13;1.80;;;;;;;13.70;62.95;99378.63;4088637;28;20242;-47
2023/05/17 08:56:10;;;;;;;5.57;2.38;;;;;;;13.44;64.23;99380.09;4087070;28;20228;-45
2023/05/17 08:58:27;;;;;;;3.55;1.60;;;;;;;13.56;66.54;99372.63;4090212;28;20212;-46
2023/05/17 09:00:39;;;;;;;3.00;2.03;;;;;;;13.34;65.65;99379.06;4090775;28;20271;-45
2023/05/17 09:02:41;;;;;;;4.20;1.88;;;;;;;12.62;64.49;99391.59;4094970;28;20674;-45
2023/05/17 09:04:44;;;;;;;3.85;2.10;;;;;;;12.57;66.18;99383.25;4076893;29;20204;-45
2023/05/17 09:06:51;;;;;;;4.38;2.00;;;;;;;12.68;68.47;99390.63;4091487;28;20204;-45
2023/05/17 09:09:01;;;;;;;3.83;2.35;;;;;;;12.48;68.01;99390.19;4094371;28;20617;-45
2023/05/17 09:11:04;;;;;;;7.20;2.70;;;;;;;12.66;67.97;99387.31;4095795;28;20697;-46
2023/05/17 09:13:07;;;;;;;4.22;2.53;;;;;;;12.63;68.80;99393.25;4094055;28;20215;-46
2023/05/17 09:15:17;;;;;;;10.02;1.92;;;;;;;12.62;67.07;99388.84;4076080;29;20216;-46
2023/05/17 09:17:20;;;;;;;5.05;2.63;;;;;;;12.91;67.67;99393.31;4109836;28;20977;-46
2023/05/17 09:19:23;;;;;;;4.28;2.05;;;;;;;13.02;67.11;99392.47;4095285;28;20211;-45
2023/05/17 09:21:33;;;;;;;2.88;2.08;;;;;;;13.14;69.42;99395.16;4090843;28;20238;-46
2023/05/17 09:23:38;;;;;;;5.72;2.00;;;;;;;13.19;67.89;99393.38;4076842;29;20299;-46
2023/05/17 09:25:49;;;;;;;4.03;1.95;;;;;;;13.08;68.48;99399.75;4092036;28;20242;-45
2023/05/17 09:27:52;;;;;;;5.45;2.60;;;;;;;13.22;69.40;99401.13;4093536;28;20218;-46
2023/05/17 09:29:57;;;;;;;4.95;1.98;;;;;;;12.87;68.12;99400.38;4081733;29;20215;-46
2023/05/17 09:32:11;;;;;;;5.00;2.40;;;;;;;12.69;68.61;99406.03;4080352;28;20319;-45
2023/05/17 09:34:17;;;;;;;4.10;2.20;;;;;;;12.87;69.61;99400.38;4107271;28;20211;-43
2023/05/17 09:36:23;;;;;;;4.25;2.13;;;;;;;12.72;67.93;99405.56;4093332;28;20224;-44
2023/05/17 09:38:26;;;;;;;2.88;2.33;;;;;;;12.88;68.04;99401.19;4083850;29;20271;-43
2023/05/17 09:40:28;;;;;;;2.88;1.75;;;;;;;12.68;66.74;99398.88;4106526;28;20622;-45
2023/05/17 09:42:35;;;;;;;4.28;1.90;;;;;;;12.56;68.02;99387.06;4097695;28;20581;-45
2023/05/17 09:44:49;;;;;;;2.90;2.00;;;;;;;13.43;68.12;99392.16;4093018;28;20223;-44
2023/05/17 09:46:51;;;;;;;3.63;2.35;;;;;;;13.85;65.85;99396.25;4096987;28;20646;-45